Danville, Kentucky
Current Conditions -  °F | °C
As of 7:15 PM on Friday 28 Nov 2014 (Local Time) from KDVK Reporting Station
Clear Clear  
Wind Chill: 26°   Ceiling: Unl
Heat Index: 32°   Visibility: 10mi
Dew Point: 21°   Wind: 6mph
Humidity: 64%   Direction: 160°SSE
Pressure: 30.19"   Gusts: NA
Location:  37.65°N, 84.77°W
Report Text: KDVK 290015Z AUTO 16005KT 10SM CLR 00/M06 A3019 RMK AO2
Loading
Personal Weather Stations






























Interactive Weather Map New forecast layout! Learn more

10-Day Weather Forecast

Advertisements
Track Severe Weather on mobile